CPX309 Details

Departure: Guam International Airport (PGUM)
Arrival: Tokyo-Narita International Airport (RJAA)
Route: UNZ TERYY G205 TEGOD A337 DAGDA G223 ADKAK Y819 CATCH Y815 KETAR Y811 VEPOX Y811 MELON


Current Weather Information
PGUM 212254Z 29/23 A2986 RMK AO2 SLP104 T02940233 PNO $
RJAA 212300Z 04013KT 9999 FEW030 BKN/// 18/12 Q1006 NOSIG